ASN logo
ASN Wikibase Occurrence # 242811
Last updated: 24 September 2020
This information is added by users of ASN. Neither ASN nor the Flight Safety Foundation are responsible for the completeness or correctness of this information. If you feel this information is incomplete or incorrect, you can submit corrected information.

Date:22-SEP-2020
Time:09:56 UTC
Type:Silhouette image of generic B763 model; specific model in this crash may look slightly different
Boeing 767-33AER (WL)
Owner/operator:Azur Air
Registration: VQ-BEN
C/n / msn: 28140/850
Fatalities:Fatalities: 0 / Occupants: 346
Other fatalities:0
Aircraft damage: Minor
Location:Moskva-Vnukovo Airport (VKO/UUWW) -   Russia
Phase: Landing
Nature:Passenger - Scheduled
Departure airport:Antalya Airport (AYT/LTAI)
Destination airport:Moskva-Vnukovo Airport (VKO/UUWW)
Narrative:
Upon landing, the airplane suffered a tail strike as a result of wind shift on landing. A 101 m long trace was found on the runway and there was minor damage to the tail. There were no personal injuries.
The aircraft resumed service 32 hours after the incident.

Weather:
UUWW 220900Z 25006MPS CAVOK 17/09 Q1013 R19/000070 NOSIG
UUWW 221000Z 25010MPS CAVOK 18/08 Q1013 R24/000070 NOSIG
UUWW 221100Z 25011MPS CAVOK 19/08 Q1013 R24/000070 TEMPO 25011G16MPS

Sources:

FAVT


Images:

Photo of VQ-BEN courtesy AirHistory.net


Palma de Mallorca (LEPA / LESJ / PMI)
3 June 2019; (c) Toni Marimón

Revision history:

Date/timeContributorUpdates
24-Sep-2020 06:26 gerard57 Added
24-Sep-2020 06:41 harro Updated [Aircraft type, Cn, Departure airport, Destination airport]
24-Sep-2020 06:45 harro Updated [Time, Location, Source, Damage, Narrative]
24-Sep-2020 06:47 harro Updated [Narrative]

Corrections or additions? ... Edit this accident description